Time;durP1;ratioP1;P1;durP2;ratioP2;P2;SDS_P1;SDS_P2;PMS_P1;PMS_P2;Temp;Humidity;BMP_temperature;BMP_pressure;BME280_temperature;BME280_humidity;BME280_pressure;Samples;Min_cycle;Max_cycle;Signal;HPM_P1;HPM_P2
2023/01/31 00:01:38;;;;;;;18.60;10.40;;;;;;;4.04;49.27;100916.53;5091661;28;20416;-78
2023/01/31 00:04:06;;;;;;;27.52;17.55;;;;;;;4.15;49.12;100913.06;5091605;28;20378;-78
2023/01/31 00:06:37;;;;;;;24.02;13.20;;;;;;;4.10;48.95;100913.41;5093087;28;20369;-78
2023/01/31 00:09:04;;;;;;;23.70;12.67;;;;;;;4.29;48.65;100907.53;5093471;28;20388;-78
2023/01/31 00:11:31;;;;;;;21.70;11.85;;;;;;;4.48;48.54;100900.78;5091807;28;20377;-75
2023/01/31 00:13:58;;;;;;;17.17;9.68;;;;;;;4.60;48.17;100891.91;5090789;28;20374;-77
2023/01/31 00:16:24;;;;;;;19.42;10.27;;;;;;;4.50;48.31;100902.34;5090500;28;20762;-77
2023/01/31 00:18:49;;;;;;;17.40;9.38;;;;;;;4.56;47.93;100893.94;5090668;28;20867;-77
2023/01/31 00:21:24;;;;;;;16.03;8.63;;;;;;;4.48;47.63;100885.84;5089260;28;20452;-77
2023/01/31 00:23:51;;;;;;;19.97;11.33;;;;;;;4.48;47.77;100885.03;5091777;28;21118;-77
2023/01/31 00:26:24;;;;;;;22.90;11.07;;;;;;;4.54;46.89;100895.03;5091118;28;20400;-77
2023/01/31 00:28:51;;;;;;;19.25;9.95;;;;;;;4.57;47.08;100884.25;5089816;28;20609;-77
2023/01/31 00:31:18;;;;;;;16.23;8.55;;;;;;;4.66;47.21;100886.13;5090310;28;20750;-77
2023/01/31 00:33:45;;;;;;;15.18;8.15;;;;;;;4.73;46.67;100887.28;5090742;28;20381;-77
2023/01/31 00:36:14;;;;;;;15.23;9.30;;;;;;;4.75;46.97;100882.75;5090550;28;20413;-77
2023/01/31 00:38:46;;;;;;;19.17;8.90;;;;;;;4.78;47.61;100882.47;5090432;28;20898;-77
2023/01/31 00:41:11;;;;;;;16.90;9.57;;;;;;;4.82;46.80;100888.31;5090512;28;20385;-77
2023/01/31 00:43:37;;;;;;;18.97;9.60;;;;;;;4.85;46.11;100900.38;5107345;28;20371;-77
2023/01/31 00:46:03;;;;;;;15.85;10.18;;;;;;;4.88;45.80;100898.31;5110894;28;20389;-76
2023/01/31 00:48:29;;;;;;;17.90;12.07;;;;;;;4.94;46.08;100903.03;5111292;28;20386;-77
2023/01/31 00:50:55;;;;;;;21.63;14.17;;;;;;;4.90;45.75;100880.63;5111623;28;20379;-77
2023/01/31 00:53:22;;;;;;;19.60;15.37;;;;;;;5.07;46.03;100894.97;5111305;28;20376;-77
2023/01/31 00:55:49;;;;;;;25.65;20.40;;;;;;;5.08;45.59;100895.81;5111430;28;20467;-77
2023/01/31 00:58:15;;;;;;;21.42;17.25;;;;;;;5.07;45.87;100894.13;5110279;28;20399;-77
2023/01/31 01:00:40;;;;;;;21.87;14.93;;;;;;;5.06;45.71;100906.44;5110992;28;20379;-77
2023/01/31 01:03:06;;;;;;;23.67;15.37;;;;;;;5.07;45.41;100909.91;5110971;28;20383;-77
2023/01/31 01:05:31;;;;;;;20.17;13.52;;;;;;;4.83;45.80;100908.38;5111319;28;20372;-76
2023/01/31 01:07:57;;;;;;;22.67;15.07;;;;;;;4.89;46.31;100907.03;5113730;28;20393;-77
2023/01/31 01:10:22;;;;;;;22.03;13.73;;;;;;;4.79;45.71;100922.72;5115073;28;20360;-77
2023/01/31 01:12:48;;;;;;;25.43;14.37;;;;;;;4.72;46.16;100938.16;5114885;28;20375;-77
2023/01/31 01:15:13;;;;;;;20.58;14.40;;;;;;;4.60;46.13;100926.84;5114598;28;20444;-77
2023/01/31 01:17:39;;;;;;;24.08;14.40;;;;;;;4.58;46.48;100917.44;5114759;27;20803;-76
2023/01/31 01:20:05;;;;;;;21.20;11.30;;;;;;;4.65;46.43;100899.41;5114228;28;20476;-77
2023/01/31 01:22:32;;;;;;;19.48;11.07;;;;;;;4.67;46.40;100893.06;5114385;28;20387;-76
2023/01/31 01:24:57;;;;;;;17.42;10.65;;;;;;;4.54;46.94;100902.91;5114406;28;20466;-76
2023/01/31 01:27:23;;;;;;;18.30;10.60;;;;;;;4.47;47.50;100901.75;5114307;27;20455;-77
2023/01/31 01:29:49;;;;;;;20.23;10.38;;;;;;;4.21;48.38;100902.91;5113761;28;20866;-76
2023/01/31 01:32:14;;;;;;;17.58;8.30;;;;;;;4.04;48.28;100903.41;5114400;28;20382;-77
2023/01/31 01:34:39;;;;;;;14.93;8.93;;;;;;;3.85;49.14;100897.97;5114354;28;20650;-77
2023/01/31 01:37:18;;;;;;;16.57;8.87;;;;;;;4.01;48.80;100895.78;5114483;28;20676;-77
2023/01/31 01:39:48;;;;;;;15.85;8.45;;;;;;;4.06;48.91;100900.69;5114157;28;20411;-76
2023/01/31 01:42:18;;;;;;;13.15;7.35;;;;;;;4.14;48.68;100883.38;5114006;28;20375;-77
2023/01/31 01:44:58;;;;;;;23.77;10.25;;;;;;;4.16;48.66;100897.19;5112687;28;20449;-77
2023/01/31 01:47:49;;;;;;;17.52;9.40;;;;;;;4.12;49.02;100903.63;5113840;28;20368;-77
2023/01/31 01:50:35;;;;;;;68.43;47.45;;;;;;;4.15;48.71;100895.50;5112928;28;20444;-77
2023/01/31 01:53:26;;;;;;;46.65;38.45;;;;;;;3.87;49.40;100901.31;5113648;28;20387;-76
2023/01/31 01:56:02;;;;;;;33.38;30.05;;;;;;;3.87;49.61;100911.78;5104699;28;20452;-77
2023/01/31 01:58:56;;;;;;;35.03;31.55;;;;;;;3.89;49.72;100908.13;5112963;28;20403;-77
2023/01/31 02:01:25;;;;;;;39.15;34.95;;;;;;;3.88;49.78;100922.16;5090504;28;20398;-77
2023/01/31 02:03:51;;;;;;;42.65;38.03;;;;;;;4.00;49.41;100910.69;5113151;28;20372;-77
2023/01/31 02:06:17;;;;;;;42.37;36.07;;;;;;;3.99;49.57;100903.78;5112601;28;20372;-77
2023/01/31 02:08:43;;;;;;;32.95;29.55;;;;;;;4.07;49.57;100929.41;5112897;28;20436;-77
2023/01/31 02:11:09;;;;;;;31.70;28.63;;;;;;;3.91;49.63;100924.56;5114219;28;20409;-77
2023/01/31 02:13:35;;;;;;;49.67;40.13;;;;;;;3.93;50.32;100925.25;5111792;28;20436;-77
2023/01/31 02:16:00;;;;;;;49.88;41.78;;;;;;;3.92;50.49;100923.59;5111776;28;20372;-77
2023/01/31 02:18:26;;;;;;;45.63;38.33;;;;;;;4.26;49.55;100917.44;5111954;28;20490;-77
2023/01/31 02:21:13;;;;;;;33.28;30.05;;;;;;;4.11;49.90;100906.41;5112773;28;20386;-77
2023/01/31 02:24:03;;;;;;;33.25;29.70;;;;;;;4.30;50.06;100913.59;5112706;28;20631;-76
2023/01/31 02:26:31;;;;;;;26.52;23.83;;;;;;;4.24;50.35;100906.25;5112671;28;20376;-76
2023/01/31 02:29:02;;;;;;;32.13;27.17;;;;;;;4.37;50.19;100918.22;5112352;28;20523;-77
2023/01/31 02:31:49;;;;;;;29.35;25.08;;;;;;;4.35;49.93;100938.50;5112482;28;20395;-77
2023/01/31 02:34:20;;;;;;;29.20;24.80;;;;;;;4.39;49.69;100931.22;5112667;28;20407;-77
2023/01/31 02:36:59;;;;;;;22.45;20.15;;;;;;;4.39;50.19;100937.31;5112593;28;20380;-76
2023/01/31 02:39:43;;;;;;;28.88;24.80;;;;;;;4.43;49.95;100935.28;5112205;28;20419;-77
2023/01/31 02:42:08;;;;;;;31.52;28.20;;;;;;;4.59;49.38;100940.09;5112106;28;20462;-77
2023/01/31 02:44:58;;;;;;;56.00;44.57;;;;;;;4.63;49.17;100945.94;5112444;28;20525;-77
2023/01/31 02:47:26;;;;;;;165.17;69.23;;;;;;;4.48;49.52;100961.97;5111274;28;20391;-77
2023/01/31 02:50:07;;;;;;;210.65;78.00;;;;;;;4.25;50.47;100971.72;5112141;28;20450;-77
2023/01/31 02:52:36;;;;;;;114.65;58.65;;;;;;;4.28;50.09;100962.75;5112176;28;20379;-77
2023/01/31 02:58:16;;;;;;;19.67;14.27;;;;;;;4.42;50.31;100951.16;5112326;28;20407;-77
2023/01/31 03:00:44;;;;;;;23.88;16.55;;;;;;;4.40;50.16;100943.41;5111005;28;20408;-77
2023/01/31 03:03:23;;;;;;;17.83;14.13;;;;;;;4.27;50.56;100947.97;5112275;28;20376;-77
2023/01/31 03:09:03;;;;;;;22.33;13.30;;;;;;;4.07;51.06;100929.41;5111852;28;20418;-77
2023/01/31 03:12:05;;;;;;;20.60;13.32;;;;;;;4.11;50.79;100922.97;5111745;28;20965;-77
2023/01/31 03:15:04;;;;;;;23.23;15.27;;;;;;;3.85;51.39;100916.31;5111566;28;20409;-77
2023/01/31 03:17:49;;;;;;;142.93;63.35;;;;;;;3.72;51.94;100925.16;5111725;28;20379;-77
2023/01/31 03:20:24;;;;;;;75.88;41.28;;;;;;;3.79;51.84;100928.13;5110727;28;20513;-77
2023/01/31 03:23:07;;;;;;;148.45;65.78;;;;;;;3.74;51.71;100933.72;5111735;28;20367;-77
2023/01/31 03:25:36;;;;;;;215.15;79.22;;;;;;;3.52;52.35;100934.56;5110531;28;20382;-77
2023/01/31 03:28:08;;;;;;;158.75;68.00;;;;;;;3.43;52.92;100943.97;5111917;28;20851;-77
2023/01/31 03:31:02;;;;;;;95.15;54.75;;;;;;;3.49;52.66;100933.97;5109964;28;20503;-77
2023/01/31 03:33:35;;;;;;;58.95;45.47;;;;;;;3.45;53.23;100949.09;5082952;28;20383;-77
2023/01/31 03:36:15;;;;;;;62.88;45.70;;;;;;;3.43;53.17;100959.69;5112002;28;20471;-77
2023/01/31 03:39:14;;;;;;;76.95;51.25;;;;;;;3.47;53.05;100959.47;5111858;28;20396;-77
2023/01/31 03:41:44;;;;;;;29.80;26.67;;;;;;;3.16;53.52;100948.72;5078773;28;20384;-77
2023/01/31 03:44:18;;;;;;;30.30;27.10;;;;;;;3.27;53.82;100964.44;5111858;28;20382;-77
2023/01/31 03:46:49;;;;;;;31.85;28.48;;;;;;;3.30;53.69;100974.69;5112220;28;20364;-77
2023/01/31 03:49:19;;;;;;;83.88;50.83;;;;;;;3.35;53.51;100975.19;5110793;28;20372;-77
2023/01/31 03:51:51;;;;;;;174.88;70.50;;;;;;;3.20;54.25;100992.06;5106838;28;20886;-77
2023/01/31 03:54:28;;;;;;;68.10;43.83;;;;;;;3.18;54.36;100991.34;5110442;28;20674;-77
2023/01/31 03:57:11;;;;;;;39.20;34.95;;;;;;;3.34;54.00;100999.72;5112398;28;20364;-77
2023/01/31 03:59:39;;;;;;;35.85;32.13;;;;;;;3.51;53.75;101001.06;5112021;28;20798;-77
2023/01/31 04:02:08;;;;;;;33.35;29.98;;;;;;;3.73;53.04;100999.44;5111312;28;20451;-78
2023/01/31 04:04:43;;;;;;;18.02;10.85;;;;;;;3.62;53.41;100989.75;5111859;28;20403;-77
2023/01/31 04:07:09;;;;;;;254.00;85.93;;;;;;;3.61;53.43;100996.78;5111620;28;20364;-77
2023/01/31 04:09:36;;;;;;;59.85;44.88;;;;;;;3.54;53.83;100994.75;5111558;28;20371;-77
2023/01/31 04:12:02;;;;;;;26.48;23.67;;;;;;;3.53;53.69;101003.53;5111448;28;20375;-77
2023/01/31 04:14:28;;;;;;;21.20;14.55;;;;;;;3.41;54.28;101008.78;5111706;28;20839;-77
2023/01/31 04:16:54;;;;;;;21.20;13.73;;;;;;;3.59;53.79;101013.59;5111716;28;20486;-77
2023/01/31 04:19:19;;;;;;;20.97;16.80;;;;;;;3.76;53.66;101009.66;5112215;28;20928;-77
2023/01/31 04:21:44;;;;;;;28.77;23.70;;;;;;;3.79;53.50;101007.63;5113542;28;20706;-76
2023/01/31 04:24:10;;;;;;;37.67;33.45;;;;;;;3.92;53.25;101017.16;5111331;28;20372;-77
2023/01/31 04:26:36;;;;;;;43.50;38.53;;;;;;;4.06;52.58;101019.56;5111752;28;20375;-77
2023/01/31 04:29:02;;;;;;;60.97;47.08;;;;;;;3.95;53.00;101017.78;5119323;28;20417;-76
2023/01/31 04:31:27;;;;;;;75.20;53.28;;;;;;;3.90;53.20;101012.03;5122499;28;20429;-77
2023/01/31 04:33:53;;;;;;;81.40;53.97;;;;;;;4.10;53.01;101030.63;5123435;28;20372;-77
2023/01/31 04:36:18;;;;;;;162.23;70.10;;;;;;;4.12;52.64;101023.47;5123764;28;20372;-77
2023/01/31 04:38:44;;;;;;;52.60;43.07;;;;;;;4.11;52.85;101024.44;5120139;28;20494;-77
2023/01/31 04:41:09;;;;;;;158.53;68.40;;;;;;;4.19;53.00;101036.00;5111633;28;20375;-77
2023/01/31 04:43:35;;;;;;;207.75;80.00;;;;;;;4.21;52.77;101036.72;5115277;28;20376;-77
2023/01/31 04:46:00;;;;;;;27.58;19.95;;;;;;;4.34;52.46;101038.38;5115062;28;20368;-77
2023/01/31 04:48:26;;;;;;;46.20;38.67;;;;;;;4.35;52.78;101038.25;5115147;28;20372;-77
2023/01/31 04:50:51;;;;;;;48.20;42.07;;;;;;;4.51;52.98;101031.78;5115097;28;20379;-77
2023/01/31 04:53:17;;;;;;;40.73;29.37;;;;;;;4.59;52.23;101045.97;5114770;28;20420;-77
2023/01/31 04:55:42;;;;;;;43.45;35.78;;;;;;;4.54;52.32;101036.81;5114885;28;20371;-77
2023/01/31 04:58:08;;;;;;;34.30;24.53;;;;;;;4.51;52.62;101029.16;5114582;28;20367;-77
2023/01/31 05:00:33;;;;;;;57.27;40.27;;;;;;;4.45;52.93;101027.88;5112728;28;20403;-77
2023/01/31 05:02:59;;;;;;;36.97;29.60;;;;;;;4.68;52.72;101039.16;5096959;28;20377;-77
2023/01/31 05:05:25;;;;;;;38.67;30.63;;;;;;;4.76;52.35;101036.72;5094252;28;20377;-77
2023/01/31 05:07:51;;;;;;;70.00;49.97;;;;;;;4.82;51.86;101032.75;5114043;28;20372;-77
2023/01/31 05:10:17;;;;;;;73.07;49.73;;;;;;;4.91;52.11;101039.06;5114819;28;20364;-78
2023/01/31 05:12:42;;;;;;;99.28;56.60;;;;;;;4.91;51.93;101032.00;5114246;28;20388;-78
2023/01/31 05:15:10;;;;;;;100.20;54.23;;;;;;;4.93;51.98;101047.66;5115674;28;20421;-78
2023/01/31 05:17:36;;;;;;;33.30;23.63;;;;;;;5.03;51.59;101035.44;5115548;28;20478;-78
2023/01/31 05:20:02;;;;;;;30.77;25.73;;;;;;;5.10;51.92;101041.88;5115109;28;20399;-78
2023/01/31 05:22:27;;;;;;;117.35;62.30;;;;;;;5.06;51.57;101042.22;5113397;28;20380;-78
2023/01/31 05:24:53;;;;;;;154.35;66.65;;;;;;;5.13;51.80;101043.38;5115109;28;20383;-78
2023/01/31 05:27:18;;;;;;;88.17;55.73;;;;;;;5.26;51.08;101033.53;5114373;28;20969;-77
2023/01/31 05:29:44;;;;;;;49.90;41.97;;;;;;;5.37;51.14;101032.66;5112517;28;20471;-78
2023/01/31 05:32:11;;;;;;;84.63;53.78;;;;;;;5.37;50.99;101024.78;5112572;28;20463;-78
2023/01/31 05:34:36;;;;;;;56.55;43.70;;;;;;;5.48;51.15;101032.59;5113157;28;20368;-78
2023/01/31 05:37:03;;;;;;;32.60;20.37;;;;;;;5.57;51.02;101041.50;5112527;28;20391;-78
2023/01/31 05:39:28;;;;;;;53.45;44.65;;;;;;;5.47;50.95;101030.91;5115446;28;20396;-78
2023/01/31 05:41:54;;;;;;;103.70;55.80;;;;;;;5.60;50.85;101035.97;5112705;28;20394;-77
2023/01/31 05:44:20;;;;;;;27.57;15.23;;;;;;;5.73;50.48;101033.16;5113591;28;20422;-77
2023/01/31 05:46:46;;;;;;;24.08;12.25;;;;;;;5.75;50.36;101041.72;5113324;28;20498;-77
2023/01/31 05:49:11;;;;;;;28.73;13.32;;;;;;;5.67;50.34;101039.75;5113912;28;20384;-78
2023/01/31 05:51:38;;;;;;;28.30;12.60;;;;;;;5.72;50.71;101053.34;5112306;28;20391;-77
2023/01/31 05:54:04;;;;;;;21.90;11.47;;;;;;;5.67;50.25;101045.03;5112568;28;20380;-78
2023/01/31 05:56:29;;;;;;;25.35;13.55;;;;;;;5.80;50.42;101046.59;5114610;27;20478;-78
2023/01/31 05:58:55;;;;;;;27.45;12.80;;;;;;;5.91;50.15;101052.63;5114918;28;20419;-78
2023/01/31 06:01:24;;;;;;;26.33;12.80;;;;;;;5.95;50.15;101058.44;5112921;27;20814;-77
2023/01/31 06:03:50;;;;;;;25.58;13.05;;;;;;;5.89;50.11;101059.81;5113318;28;20957;-78
2023/01/31 06:06:16;;;;;;;22.85;12.38;;;;;;;5.90;50.32;101058.81;5113680;28;20433;-77
2023/01/31 06:08:42;;;;;;;31.60;14.32;;;;;;;5.82;50.33;101052.56;5111414;28;20394;-77
2023/01/31 06:11:10;;;;;;;27.97;14.07;;;;;;;5.77;50.53;101066.09;5113214;28;20376;-77
2023/01/31 06:13:36;;;;;;;32.63;13.48;;;;;;;5.77;50.69;101071.38;5113010;28;20384;-77
2023/01/31 06:16:01;;;;;;;32.42;15.98;;;;;;;5.88;50.28;101080.97;5113503;28;20433;-78
2023/01/31 06:18:28;;;;;;;30.93;19.23;;;;;;;5.84;50.53;101076.94;5112851;28;20399;-78
2023/01/31 06:20:53;;;;;;;42.17;29.33;;;;;;;5.82;50.64;101082.34;5113049;28;20380;-78
2023/01/31 06:23:19;;;;;;;87.57;49.05;;;;;;;5.80;50.35;101072.88;5112515;27;20441;-77
2023/01/31 06:25:51;;;;;;;171.98;75.82;;;;;;;5.88;50.47;101089.69;5112438;28;20380;-77
2023/01/31 06:28:17;;;;;;;27.45;13.90;;;;;;;5.77;50.59;101091.59;5114134;28;20450;-78
2023/01/31 06:30:43;;;;;;;111.32;58.97;;;;;;;5.64;50.64;101089.16;5112156;28;20400;-77
2023/01/31 06:33:08;;;;;;;22.67;12.97;;;;;;;5.44;50.81;101072.38;5112578;28;20474;-78
2023/01/31 06:35:34;;;;;;;31.37;27.13;;;;;;;5.48;51.39;101090.44;5113009;28;20386;-77
2023/01/31 06:38:00;;;;;;;21.20;14.98;;;;;;;5.57;51.13;101091.47;5112232;28;20871;-78
2023/01/31 06:40:26;;;;;;;65.63;47.00;;;;;;;5.46;51.19;101081.84;5111572;28;20420;-79
2023/01/31 06:42:51;;;;;;;30.00;27.20;;;;;;;5.48;50.87;101081.72;5111875;28;20423;-78
2023/01/31 06:45:17;;;;;;;102.90;55.20;;;;;;;5.48;51.38;101089.59;5112079;28;20770;-78
2023/01/31 06:47:45;;;;;;;16.00;10.27;;;;;;;5.49;51.46;101071.06;5111451;28;20779;-77
2023/01/31 06:50:11;;;;;;;21.92;17.50;;;;;;;5.42;51.15;101090.09;5112385;28;20428;-78
2023/01/31 06:52:38;;;;;;;15.68;12.20;;;;;;;5.47;51.52;101085.28;5111989;28;20724;-78
2023/01/31 06:55:04;;;;;;;32.78;19.73;;;;;;;5.57;51.06;101096.72;5111399;28;20390;-77
2023/01/31 06:57:29;;;;;;;12.02;8.73;;;;;;;5.31;51.09;101107.59;5111455;28;20384;-77
2023/01/31 06:59:55;;;;;;;90.05;54.15;;;;;;;5.27;51.82;101100.09;5112295;28;20400;-78
2023/01/31 07:02:20;;;;;;;24.58;17.77;;;;;;;5.44;51.75;101099.53;5111646;28;20384;-79
2023/01/31 07:04:46;;;;;;;86.77;50.83;;;;;;;5.78;51.00;101094.09;5110412;28;20391;-78
2023/01/31 07:07:11;;;;;;;33.30;30.30;;;;;;;5.95;50.58;101090.03;5113451;28;20978;-78
2023/01/31 07:09:37;;;;;;;29.17;26.13;;;;;;;6.00;50.30;101108.91;5113177;27;20876;-79
2023/01/31 07:12:03;;;;;;;25.13;22.67;;;;;;;6.14;50.16;101097.22;5113264;28;20395;-77
2023/01/31 07:14:28;;;;;;;38.13;33.53;;;;;;;6.24;49.89;101095.44;5114279;28;20390;-78
2023/01/31 07:16:54;;;;;;;11.93;8.87;;;;;;;6.00;50.47;101105.47;5104636;28;20891;-77
2023/01/31 07:19:19;;;;;;;86.33;42.63;;;;;;;6.09;50.75;101094.97;5113484;28;20442;-76
2023/01/31 07:21:47;;;;;;;141.83;64.43;;;;;;;6.27;50.10;101105.72;5113111;28;20486;-78
2023/01/31 07:24:13;;;;;;;10.02;6.13;;;;;;;6.03;50.68;101084.13;5112600;28;20390;-78
2023/01/31 07:26:39;;;;;;;14.40;7.03;;;;;;;6.04;50.72;101085.81;5111334;28;20383;-80
2023/01/31 07:29:04;;;;;;;88.00;50.57;;;;;;;5.89;50.20;101078.22;5113831;28;20456;-77
2023/01/31 07:31:30;;;;;;;12.55;7.25;;;;;;;6.10;50.10;101099.28;5113571;28;20472;-79
2023/01/31 07:33:55;;;;;;;14.65;8.45;;;;;;;6.43;49.75;101096.50;5112065;28;20383;-77
2023/01/31 07:36:25;;;;;;;17.30;9.82;;;;;;;6.49;49.48;101094.16;5115040;28;20375;-80
2023/01/31 07:38:54;;;;;;;10.52;7.00;;;;;;;6.11;49.81;101105.38;5111975;28;20409;-78
2023/01/31 07:41:19;;;;;;;65.55;29.73;;;;;;;6.37;49.68;101112.81;5111996;28;20388;-81
2023/01/31 07:43:45;;;;;;;22.57;12.17;;;;;;;6.61;49.57;101104.56;5112862;28;20399;-77
2023/01/31 07:46:11;;;;;;;94.57;53.25;;;;;;;6.34;49.62;101110.44;5112428;28;20402;-78
2023/01/31 07:48:37;;;;;;;26.02;23.55;;;;;;;6.17;49.93;101094.31;5112883;28;20383;-78
2023/01/31 07:51:03;;;;;;;32.67;19.83;;;;;;;6.48;49.47;101103.03;5112866;28;20375;-78
2023/01/31 07:53:31;;;;;;;37.25;33.20;;;;;;;6.39;49.31;101100.34;5112644;28;20459;-79
2023/01/31 07:56:06;;;;;;;18.25;16.60;;;;;;;6.40;49.19;101104.66;5094856;28;20371;-78
2023/01/31 07:58:34;;;;;;;28.83;26.23;;;;;;;6.54;49.38;101106.09;5112896;28;20732;-78
2023/01/31 08:03:44;;;;;;;10.63;6.20;;;;;;;6.49;49.49;101106.50;5111383;28;20751;-79
2023/01/31 08:06:11;;;;;;;10.83;5.97;;;;;;;6.42;49.95;101105.38;5111830;28;20375;-79
2023/01/31 08:08:38;;;;;;;14.32;6.70;;;;;;;6.56;49.42;101097.09;5111940;28;20383;-78
2023/01/31 08:11:04;;;;;;;70.10;34.47;;;;;;;6.35;49.53;101091.06;5114339;28;20371;-78
2023/01/31 08:13:31;;;;;;;17.63;16.08;;;;;;;6.32;49.89;101071.94;5113682;28;20384;-79
2023/01/31 08:15:56;;;;;;;12.98;8.95;;;;;;;6.65;49.08;101080.47;5115158;28;20376;-80
2023/01/31 08:18:22;;;;;;;11.40;6.80;;;;;;;6.45;49.38;101069.06;5119276;28;20405;-79
2023/01/31 08:20:47;;;;;;;25.20;23.17;;;;;;;6.36;49.51;101090.09;5117996;28;20712;-79
2023/01/31 08:23:13;;;;;;;16.67;15.17;;;;;;;6.28;49.65;101088.97;5118553;28;20375;-79
2023/01/31 08:25:38;;;;;;;14.82;12.05;;;;;;;6.44;49.78;101098.16;5119784;28;20383;-79
2023/01/31 08:28:04;;;;;;;13.27;10.98;;;;;;;6.62;49.46;101098.34;5117091;28;20467;-80
2023/01/31 08:30:29;;;;;;;10.03;7.20;;;;;;;6.61;49.53;101086.13;5117403;28;20498;-79
2023/01/31 08:32:55;;;;;;;16.53;14.93;;;;;;;6.65;49.43;101080.47;5117185;28;20406;-79
2023/01/31 08:35:21;;;;;;;21.77;19.77;;;;;;;6.35;49.21;101084.00;5117136;28;20372;-79
2023/01/31 08:37:47;;;;;;;10.47;7.80;;;;;;;6.44;49.06;101082.34;5118304;28;20768;-78
2023/01/31 08:40:13;;;;;;;16.05;9.20;;;;;;;6.63;49.15;101073.69;5118055;28;20456;-78
2023/01/31 08:42:38;;;;;;;77.10;44.13;;;;;;;6.67;48.58;101099.59;5117003;28;20853;-78
2023/01/31 08:45:05;;;;;;;11.13;5.50;;;;;;;6.54;49.03;101083.22;5116820;28;20472;-78
2023/01/31 08:47:32;;;;;;;8.50;3.90;;;;;;;6.38;48.83;101078.47;5115082;28;20390;-78
2023/01/31 08:49:57;;;;;;;76.03;36.50;;;;;;;6.50;48.81;101087.94;5117299;28;20440;-77
2023/01/31 08:52:22;;;;;;;11.65;5.13;;;;;;;6.43;49.15;101093.88;5116323;28;20379;-78
2023/01/31 08:54:48;;;;;;;9.27;5.50;;;;;;;6.22;49.50;101088.66;5115897;28;20375;-77
2023/01/31 08:57:14;;;;;;;10.03;5.70;;;;;;;6.46;49.13;101088.31;5116409;28;20379;-77
2023/01/31 08:59:39;;;;;;;6.82;5.00;;;;;;;6.69;48.60;101100.31;5114952;28;20399;-78
2023/01/31 09:02:05;;;;;;;10.45;5.47;;;;;;;6.44;49.11;101083.19;5116237;28;20376;-79
2023/01/31 09:04:30;;;;;;;10.07;5.20;;;;;;;6.67;48.83;101094.34;5118924;28;20372;-80
2023/01/31 09:06:56;;;;;;;11.80;5.10;;;;;;;6.70;48.68;101098.53;5117006;28;20901;-79
2023/01/31 09:09:21;;;;;;;17.93;8.90;;;;;;;6.70;48.72;101080.91;5117349;27;20451;-79
2023/01/31 09:11:47;;;;;;;18.88;5.65;;;;;;;6.81;48.36;101092.31;5117272;28;20379;-79
2023/01/31 09:14:12;;;;;;;14.80;5.67;;;;;;;6.76;48.43;101105.06;5116968;28;20433;-78
2023/01/31 09:16:38;;;;;;;8.73;5.57;;;;;;;6.93;48.81;101106.19;5116014;28;20386;-79
2023/01/31 09:19:03;;;;;;;9.93;9.03;;;;;;;6.93;48.12;101104.38;5115120;28;20464;-77
2023/01/31 09:21:29;;;;;;;7.85;4.25;;;;;;;6.87;48.29;101110.19;5116716;28;20383;-78
2023/01/31 09:23:57;;;;;;;512.42;127.10;;;;;;;6.82;47.87;101102.69;5114286;28;20655;-78
2023/01/31 09:26:23;;;;;;;150.75;65.90;;;;;;;7.19;47.46;101107.31;5114762;28;20472;-77
2023/01/31 09:28:49;;;;;;;78.07;49.70;;;;;;;6.94;48.19;101102.59;5115808;28;20396;-78
2023/01/31 09:31:17;;;;;;;7.28;4.65;;;;;;;6.89;47.88;101106.44;5119686;28;20487;-79
2023/01/31 09:33:43;;;;;;;10.10;5.50;;;;;;;6.75;48.13;101090.19;5120155;28;20418;-76
2023/01/31 09:36:11;;;;;;;6.13;4.27;;;;;;;6.80;48.26;101103.81;5117732;28;20399;-78
2023/01/31 09:38:36;;;;;;;9.55;5.50;;;;;;;7.00;48.17;101084.41;5118305;28;20401;-78
2023/01/31 09:41:11;;;;;;;10.07;4.90;;;;;;;7.24;47.79;101081.38;5117827;28;20449;-77
2023/01/31 09:43:43;;;;;;;7.55;4.45;;;;;;;7.17;47.63;101072.34;5115782;28;20851;-77
2023/01/31 09:46:16;;;;;;;9.20;4.80;;;;;;;7.07;47.89;101076.78;5115311;28;20382;-79
2023/01/31 09:48:47;;;;;;;6.80;4.55;;;;;;;7.12;46.95;101079.84;5115126;28;20367;-78
2023/01/31 09:51:15;;;;;;;9.98;6.90;;;;;;;7.35;47.40;101082.22;5114442;28;20759;-78
2023/01/31 09:53:41;;;;;;;6.72;4.18;;;;;;;7.22;46.90;101087.75;5116298;28;20386;-80
2023/01/31 09:56:19;;;;;;;7.03;4.13;;;;;;;7.17;46.98;101077.63;5116917;28;20372;-78
2023/01/31 09:58:48;;;;;;;7.90;4.68;;;;;;;7.24;46.86;101091.09;5118086;28;20939;-80
2023/01/31 10:01:22;;;;;;;5.35;3.45;;;;;;;7.27;46.29;101089.03;5117558;28;20445;-79
2023/01/31 10:04:12;;;;;;;6.22;3.45;;;;;;;7.00;46.21;101096.75;5117521;28;20439;-79
2023/01/31 10:06:50;;;;;;;6.25;3.28;;;;;;;7.01;46.18;101095.81;5116009;28;20383;-78
2023/01/31 10:09:27;;;;;;;5.85;2.53;;;;;;;6.89;46.46;101102.97;5113002;28;20373;-79
2023/01/31 10:11:59;;;;;;;5.15;2.80;;;;;;;6.94;46.29;101105.22;5103775;28;20383;-79
2023/01/31 10:14:49;;;;;;;4.05;2.35;;;;;;;6.85;46.25;101094.50;5117111;28;20443;-79
2023/01/31 10:17:31;;;;;;;3.22;2.10;;;;;;;7.00;46.33;101096.75;5116286;28;20380;-79
2023/01/31 10:20:07;;;;;;;5.10;3.10;;;;;;;7.24;45.21;101096.38;5115091;28;20502;-79
2023/01/31 10:22:45;;;;;;;3.03;2.35;;;;;;;7.40;44.98;101093.16;5116685;28;20380;-78
2023/01/31 10:25:31;;;;;;;5.70;3.07;;;;;;;7.58;45.05;101090.63;5115135;28;20479;-80
2023/01/31 10:28:05;;;;;;;5.20;3.10;;;;;;;7.49;45.61;101073.00;5117593;28;20434;-79
2023/01/31 10:30:57;;;;;;;6.17;3.27;;;;;;;7.83;45.40;101081.28;5115008;28;20494;-80
2023/01/31 10:33:23;;;;;;;5.20;2.60;;;;;;;7.31;45.65;101084.28;5109562;28;20388;-79
2023/01/31 10:35:51;;;;;;;4.28;2.40;;;;;;;7.16;45.78;101098.84;5115329;28;20390;-77
2023/01/31 10:38:29;;;;;;;6.15;3.03;;;;;;;7.17;46.60;101096.09;5115134;27;20743;-78
2023/01/31 10:41:14;;;;;;;3.78;2.30;;;;;;;7.37;46.19;101090.81;5115141;28;20379;-80
2023/01/31 10:43:55;;;;;;;4.00;2.40;;;;;;;7.38;46.36;101090.69;5117561;28;20384;-79
2023/01/31 10:46:21;;;;;;;5.53;2.47;;;;;;;7.62;45.84;101074.38;5115830;28;20371;-80
2023/01/31 10:48:46;;;;;;;8.23;2.63;;;;;;;7.19;46.77;101072.22;5114916;28;20383;-78
2023/01/31 10:51:12;;;;;;;6.23;3.60;;;;;;;7.46;46.23;101076.78;5115906;28;20371;-79
2023/01/31 10:53:47;;;;;;;3.60;2.40;;;;;;;7.36;46.00;101070.69;5114339;28;20391;-78
2023/01/31 10:56:21;;;;;;;2.88;1.88;;;;;;;7.27;45.48;101062.66;5117104;28;20451;-78
2023/01/31 10:58:49;;;;;;;7.18;3.90;;;;;;;7.65;45.94;101065.34;5114827;28;20395;-80
2023/01/31 11:01:14;;;;;;;4.83;2.50;;;;;;;7.79;44.50;101058.78;5113741;28;20386;-77
2023/01/31 11:03:47;;;;;;;5.40;2.40;;;;;;;7.59;44.56;101050.09;5114350;28;20471;-78
2023/01/31 11:06:13;;;;;;;4.18;2.58;;;;;;;7.61;45.42;101058.69;5114948;28;20471;-78
2023/01/31 11:08:46;;;;;;;5.35;3.13;;;;;;;7.94;44.86;101059.16;5115713;28;20388;-79
2023/01/31 11:11:18;;;;;;;4.45;2.38;;;;;;;7.98;44.20;101069.31;5116032;28;20383;-78
2023/01/31 11:14:03;;;;;;;2.55;1.67;;;;;;;7.47;44.09;101062.59;5102114;28;20439;-78
2023/01/31 11:16:38;;;;;;;4.13;2.30;;;;;;;7.49;45.19;101052.78;5114179;28;20744;-77
2023/01/31 11:19:34;;;;;;;5.38;3.83;;;;;;;8.07;44.53;101064.97;5097826;28;20407;-78
2023/01/31 11:22:01;;;;;;;11.00;7.05;;;;;;;8.08;44.48;101063.97;5104722;28;20388;-78
2023/01/31 11:24:31;;;;;;;4.90;2.30;;;;;;;8.01;44.40;101063.75;5114131;28;20384;-79
2023/01/31 11:27:05;;;;;;;5.10;3.10;;;;;;;8.02;44.51;101070.66;5114244;28;20375;-79
2023/01/31 11:29:34;;;;;;;3.40;2.03;;;;;;;7.69;44.89;101072.03;5111072;28;20558;-78
2023/01/31 11:32:05;;;;;;;4.67;2.87;;;;;;;7.82;45.02;101077.00;5074443;28;20391;-78
2023/01/31 11:34:32;;;;;;;3.50;2.20;;;;;;;7.65;45.03;101079.41;5072533;28;20402;-78
2023/01/31 11:37:16;;;;;;;4.27;3.10;;;;;;;7.63;45.22;101067.31;5073291;28;20925;-78
2023/01/31 11:39:54;;;;;;;6.40;3.25;;;;;;;7.99;44.79;101060.38;5056072;28;20914;-79
2023/01/31 11:42:20;;;;;;;3.00;2.20;;;;;;;7.87;44.73;101061.56;5075293;28;20383;-77